sensor_id;sensor_type;location;lat;lon;timestamp;P1;durP1;ratioP1;P2;durP2;ratioP2
57826;SDS011;43656;57.746;11.780;2022-11-23T00:02:23;30.27;;;16.25;;
57826;SDS011;43656;57.746;11.780;2022-11-23T00:04:48;28.88;;;15.55;;
57826;SDS011;43656;57.746;11.780;2022-11-23T00:07:14;27.40;;;15.93;;
57826;SDS011;43656;57.746;11.780;2022-11-23T00:09:41;31.85;;;16.25;;
57826;SDS011;43656;57.746;11.780;2022-11-23T00:12:06;30.63;;;15.52;;
57826;SDS011;43656;57.746;11.780;2022-11-23T00:14:32;26.85;;;15.50;;
57826;SDS011;43656;57.746;11.780;2022-11-23T00:16:57;27.80;;;14.40;;
57826;SDS011;43656;57.746;11.780;2022-11-23T00:19:22;28.33;;;15.43;;
57826;SDS011;43656;57.746;11.780;2022-11-23T00:21:48;29.77;;;16.30;;
57826;SDS011;43656;57.746;11.780;2022-11-23T00:24:13;27.67;;;15.32;;
57826;SDS011;43656;57.746;11.780;2022-11-23T00:26:39;28.02;;;15.95;;
57826;SDS011;43656;57.746;11.780;2022-11-23T00:29:04;27.95;;;15.15;;
57826;SDS011;43656;57.746;11.780;2022-11-23T00:31:29;31.77;;;16.55;;
57826;SDS011;43656;57.746;11.780;2022-11-23T00:33:55;28.13;;;16.15;;
57826;SDS011;43656;57.746;11.780;2022-11-23T00:36:24;28.10;;;15.55;;
57826;SDS011;43656;57.746;11.780;2022-11-23T00:38:50;29.02;;;16.63;;
57826;SDS011;43656;57.746;11.780;2022-11-23T00:41:18;27.75;;;15.45;;
57826;SDS011;43656;57.746;11.780;2022-11-23T00:43:45;27.90;;;15.50;;
57826;SDS011;43656;57.746;11.780;2022-11-23T00:46:18;29.05;;;16.23;;
57826;SDS011;43656;57.746;11.780;2022-11-23T00:48:46;29.70;;;14.95;;
57826;SDS011;43656;57.746;11.780;2022-11-23T00:51:14;26.02;;;15.00;;
57826;SDS011;43656;57.746;11.780;2022-11-23T00:53:41;28.88;;;17.05;;
57826;SDS011;43656;57.746;11.780;2022-11-23T00:56:06;28.65;;;15.75;;
57826;SDS011;43656;57.746;11.780;2022-11-23T00:58:32;29.08;;;16.63;;
57826;SDS011;43656;57.746;11.780;2022-11-23T01:03:36;31.38;;;15.90;;
57826;SDS011;43656;57.746;11.780;2022-11-23T01:06:14;29.40;;;16.60;;
57826;SDS011;43656;57.746;11.780;2022-11-23T01:08:42;25.40;;;14.75;;
57826;SDS011;43656;57.746;11.780;2022-11-23T01:11:12;28.60;;;16.52;;
57826;SDS011;43656;57.746;11.780;2022-11-23T01:13:38;28.38;;;16.15;;
57826;SDS011;43656;57.746;11.780;2022-11-23T01:16:09;28.25;;;16.13;;
57826;SDS011;43656;57.746;11.780;2022-11-23T01:18:38;30.65;;;15.98;;
57826;SDS011;43656;57.746;11.780;2022-11-23T01:21:04;32.05;;;16.63;;
57826;SDS011;43656;57.746;11.780;2022-11-23T01:23:29;26.77;;;15.57;;
57826;SDS011;43656;57.746;11.780;2022-11-23T01:25:55;30.20;;;16.42;;
57826;SDS011;43656;57.746;11.780;2022-11-23T01:28:21;28.95;;;16.00;;
57826;SDS011;43656;57.746;11.780;2022-11-23T01:30:47;28.83;;;15.75;;
57826;SDS011;43656;57.746;11.780;2022-11-23T01:33:13;27.10;;;15.45;;
57826;SDS011;43656;57.746;11.780;2022-11-23T01:35:39;26.08;;;13.93;;
57826;SDS011;43656;57.746;11.780;2022-11-23T01:38:05;26.85;;;15.15;;
57826;SDS011;43656;57.746;11.780;2022-11-23T01:40:37;30.42;;;15.35;;
57826;SDS011;43656;57.746;11.780;2022-11-23T01:43:05;27.45;;;15.45;;
57826;SDS011;43656;57.746;11.780;2022-11-23T01:45:36;29.27;;;13.63;;
57826;SDS011;43656;57.746;11.780;2022-11-23T01:48:08;29.13;;;15.40;;
57826;SDS011;43656;57.746;11.780;2022-11-23T01:50:38;29.23;;;15.32;;
57826;SDS011;43656;57.746;11.780;2022-11-23T01:53:06;22.98;;;13.02;;
57826;SDS011;43656;57.746;11.780;2022-11-23T01:55:31;23.67;;;14.32;;
57826;SDS011;43656;57.746;11.780;2022-11-23T01:57:58;23.63;;;13.35;;
57826;SDS011;43656;57.746;11.780;2022-11-23T02:00:24;23.70;;;13.40;;
57826;SDS011;43656;57.746;11.780;2022-11-23T02:02:51;24.08;;;13.57;;
57826;SDS011;43656;57.746;11.780;2022-11-23T02:05:22;27.05;;;14.30;;
57826;SDS011;43656;57.746;11.780;2022-11-23T02:07:51;27.02;;;14.50;;
57826;SDS011;43656;57.746;11.780;2022-11-23T02:10:17;26.52;;;14.38;;
57826;SDS011;43656;57.746;11.780;2022-11-23T02:12:44;25.80;;;14.20;;
57826;SDS011;43656;57.746;11.780;2022-11-23T02:15:09;26.27;;;13.57;;
57826;SDS011;43656;57.746;11.780;2022-11-23T02:17:35;25.25;;;13.85;;
57826;SDS011;43656;57.746;11.780;2022-11-23T02:20:06;24.23;;;14.07;;
57826;SDS011;43656;57.746;11.780;2022-11-23T02:22:39;22.60;;;13.10;;
57826;SDS011;43656;57.746;11.780;2022-11-23T02:25:11;22.98;;;13.65;;
57826;SDS011;43656;57.746;11.780;2022-11-23T02:27:43;19.77;;;11.63;;
57826;SDS011;43656;57.746;11.780;2022-11-23T02:30:09;21.02;;;13.30;;
57826;SDS011;43656;57.746;11.780;2022-11-23T02:32:35;23.88;;;12.93;;
57826;SDS011;43656;57.746;11.780;2022-11-23T02:35:02;19.35;;;13.10;;
57826;SDS011;43656;57.746;11.780;2022-11-23T02:37:27;23.15;;;12.65;;
57826;SDS011;43656;57.746;11.780;2022-11-23T02:39:53;23.60;;;12.77;;
57826;SDS011;43656;57.746;11.780;2022-11-23T02:42:21;22.58;;;12.60;;
57826;SDS011;43656;57.746;11.780;2022-11-23T02:47:34;24.17;;;11.63;;
57826;SDS011;43656;57.746;11.780;2022-11-23T02:50:00;18.38;;;11.57;;
57826;SDS011;43656;57.746;11.780;2022-11-23T02:52:25;19.80;;;12.27;;
57826;SDS011;43656;57.746;11.780;2022-11-23T02:54:50;19.05;;;12.48;;
57826;SDS011;43656;57.746;11.780;2022-11-23T02:57:16;17.42;;;10.63;;
57826;SDS011;43656;57.746;11.780;2022-11-23T02:59:41;18.50;;;12.35;;
57826;SDS011;43656;57.746;11.780;2022-11-23T03:02:07;18.33;;;11.45;;
57826;SDS011;43656;57.746;11.780;2022-11-23T03:04:32;16.38;;;10.30;;
57826;SDS011;43656;57.746;11.780;2022-11-23T03:06:57;19.33;;;11.35;;
57826;SDS011;43656;57.746;11.780;2022-11-23T03:09:23;18.70;;;10.63;;
57826;SDS011;43656;57.746;11.780;2022-11-23T03:12:07;18.35;;;10.80;;
57826;SDS011;43656;57.746;11.780;2022-11-23T03:14:32;15.93;;;10.32;;
57826;SDS011;43656;57.746;11.780;2022-11-23T03:16:58;18.65;;;11.30;;
57826;SDS011;43656;57.746;11.780;2022-11-23T03:19:24;18.45;;;11.23;;
57826;SDS011;43656;57.746;11.780;2022-11-23T03:21:49;18.02;;;10.20;;
57826;SDS011;43656;57.746;11.780;2022-11-23T03:24:15;19.45;;;9.82;;
57826;SDS011;43656;57.746;11.780;2022-11-23T03:26:41;18.38;;;10.63;;
57826;SDS011;43656;57.746;11.780;2022-11-23T03:29:07;18.83;;;11.10;;
57826;SDS011;43656;57.746;11.780;2022-11-23T03:31:33;17.40;;;11.15;;
57826;SDS011;43656;57.746;11.780;2022-11-23T03:33:58;20.15;;;11.43;;
57826;SDS011;43656;57.746;11.780;2022-11-23T03:36:23;19.23;;;11.65;;
57826;SDS011;43656;57.746;11.780;2022-11-23T03:38:49;19.45;;;10.95;;
57826;SDS011;43656;57.746;11.780;2022-11-23T03:41:14;18.15;;;10.38;;
57826;SDS011;43656;57.746;11.780;2022-11-23T03:43:39;19.33;;;11.18;;
57826;SDS011;43656;57.746;11.780;2022-11-23T03:46:05;18.23;;;11.35;;
57826;SDS011;43656;57.746;11.780;2022-11-23T03:48:33;17.50;;;10.30;;
57826;SDS011;43656;57.746;11.780;2022-11-23T03:50:59;17.38;;;10.10;;
57826;SDS011;43656;57.746;11.780;2022-11-23T03:53:24;19.40;;;10.35;;
57826;SDS011;43656;57.746;11.780;2022-11-23T03:55:49;16.35;;;10.35;;
57826;SDS011;43656;57.746;11.780;2022-11-23T03:58:15;18.40;;;11.13;;
57826;SDS011;43656;57.746;11.780;2022-11-23T04:00:40;15.80;;;9.70;;
57826;SDS011;43656;57.746;11.780;2022-11-23T04:03:06;18.10;;;10.30;;
57826;SDS011;43656;57.746;11.780;2022-11-23T04:05:31;17.17;;;11.23;;
57826;SDS011;43656;57.746;11.780;2022-11-23T04:07:56;16.40;;;10.00;;
57826;SDS011;43656;57.746;11.780;2022-11-23T04:10:22;17.25;;;10.60;;
57826;SDS011;43656;57.746;11.780;2022-11-23T04:12:50;18.65;;;11.25;;
57826;SDS011;43656;57.746;11.780;2022-11-23T04:15:17;17.70;;;10.88;;
57826;SDS011;43656;57.746;11.780;2022-11-23T04:17:42;18.45;;;10.98;;
57826;SDS011;43656;57.746;11.780;2022-11-23T04:20:07;20.17;;;10.77;;
57826;SDS011;43656;57.746;11.780;2022-11-23T04:22:33;16.92;;;10.82;;
57826;SDS011;43656;57.746;11.780;2022-11-23T04:24:58;20.42;;;10.20;;
57826;SDS011;43656;57.746;11.780;2022-11-23T04:27:24;19.80;;;11.45;;
57826;SDS011;43656;57.746;11.780;2022-11-23T04:29:49;17.08;;;10.55;;
57826;SDS011;43656;57.746;11.780;2022-11-23T04:32:15;17.58;;;11.00;;
57826;SDS011;43656;57.746;11.780;2022-11-23T04:34:40;24.45;;;12.55;;
57826;SDS011;43656;57.746;11.780;2022-11-23T04:37:05;19.90;;;11.98;;
57826;SDS011;43656;57.746;11.780;2022-11-23T04:39:31;22.70;;;12.40;;
57826;SDS011;43656;57.746;11.780;2022-11-23T04:41:57;18.35;;;10.80;;
57826;SDS011;43656;57.746;11.780;2022-11-23T04:44:22;22.52;;;11.02;;
57826;SDS011;43656;57.746;11.780;2022-11-23T04:46:47;20.17;;;11.80;;
57826;SDS011;43656;57.746;11.780;2022-11-23T04:49:14;18.27;;;9.32;;
57826;SDS011;43656;57.746;11.780;2022-11-23T04:51:40;21.02;;;11.50;;
57826;SDS011;43656;57.746;11.780;2022-11-23T04:54:06;23.00;;;12.48;;
57826;SDS011;43656;57.746;11.780;2022-11-23T04:56:32;21.58;;;12.30;;
57826;SDS011;43656;57.746;11.780;2022-11-23T04:58:57;20.92;;;12.27;;
57826;SDS011;43656;57.746;11.780;2022-11-23T05:01:23;22.10;;;11.80;;
57826;SDS011;43656;57.746;11.780;2022-11-23T05:03:48;19.65;;;11.32;;
57826;SDS011;43656;57.746;11.780;2022-11-23T05:06:14;22.23;;;12.00;;
57826;SDS011;43656;57.746;11.780;2022-11-23T05:08:39;17.45;;;10.15;;
57826;SDS011;43656;57.746;11.780;2022-11-23T05:11:05;20.02;;;11.93;;
57826;SDS011;43656;57.746;11.780;2022-11-23T05:13:31;19.90;;;10.57;;
57826;SDS011;43656;57.746;11.780;2022-11-23T05:15:56;19.95;;;11.20;;
57826;SDS011;43656;57.746;11.780;2022-11-23T05:18:21;20.73;;;12.23;;
57826;SDS011;43656;57.746;11.780;2022-11-23T05:20:47;19.73;;;10.93;;
57826;SDS011;43656;57.746;11.780;2022-11-23T05:23:12;17.05;;;10.60;;
57826;SDS011;43656;57.746;11.780;2022-11-23T05:25:38;20.83;;;13.13;;
57826;SDS011;43656;57.746;11.780;2022-11-23T05:28:03;19.83;;;12.27;;
57826;SDS011;43656;57.746;11.780;2022-11-23T05:30:29;19.67;;;12.23;;
57826;SDS011;43656;57.746;11.780;2022-11-23T05:33:01;20.55;;;11.95;;
57826;SDS011;43656;57.746;11.780;2022-11-23T05:35:27;20.85;;;11.75;;
57826;SDS011;43656;57.746;11.780;2022-11-23T05:37:53;21.08;;;12.57;;
57826;SDS011;43656;57.746;11.780;2022-11-23T05:40:19;20.73;;;11.82;;
57826;SDS011;43656;57.746;11.780;2022-11-23T05:42:44;21.23;;;12.52;;
57826;SDS011;43656;57.746;11.780;2022-11-23T05:45:09;19.80;;;12.20;;
57826;SDS011;43656;57.746;11.780;2022-11-23T05:47:35;18.85;;;10.70;;
57826;SDS011;43656;57.746;11.780;2022-11-23T05:50:00;19.30;;;11.82;;
57826;SDS011;43656;57.746;11.780;2022-11-23T05:52:26;18.65;;;10.73;;
57826;SDS011;43656;57.746;11.780;2022-11-23T05:54:51;19.58;;;10.35;;
57826;SDS011;43656;57.746;11.780;2022-11-23T05:57:17;18.13;;;11.95;;
57826;SDS011;43656;57.746;11.780;2022-11-23T05:59:45;19.77;;;10.77;;
57826;SDS011;43656;57.746;11.780;2022-11-23T06:02:10;22.73;;;12.77;;
57826;SDS011;43656;57.746;11.780;2022-11-23T06:04:36;20.42;;;12.50;;
57826;SDS011;43656;57.746;11.780;2022-11-23T06:07:01;16.17;;;10.63;;
57826;SDS011;43656;57.746;11.780;2022-11-23T06:09:27;20.42;;;12.50;;
57826;SDS011;43656;57.746;11.780;2022-11-23T06:11:52;22.42;;;12.15;;
57826;SDS011;43656;57.746;11.780;2022-11-23T06:14:18;19.23;;;12.02;;
57826;SDS011;43656;57.746;11.780;2022-11-23T06:16:43;21.35;;;11.85;;
57826;SDS011;43656;57.746;11.780;2022-11-23T06:19:08;18.27;;;11.70;;
57826;SDS011;43656;57.746;11.780;2022-11-23T06:21:34;19.20;;;11.55;;
57826;SDS011;43656;57.746;11.780;2022-11-23T06:23:59;19.38;;;11.73;;
57826;SDS011;43656;57.746;11.780;2022-11-23T06:26:25;19.50;;;10.98;;
57826;SDS011;43656;57.746;11.780;2022-11-23T06:28:51;17.58;;;11.68;;
57826;SDS011;43656;57.746;11.780;2022-11-23T06:31:16;18.50;;;11.25;;
57826;SDS011;43656;57.746;11.780;2022-11-23T06:33:41;16.23;;;10.50;;
57826;SDS011;43656;57.746;11.780;2022-11-23T06:36:08;18.27;;;10.75;;
57826;SDS011;43656;57.746;11.780;2022-11-23T06:38:34;17.40;;;9.55;;
57826;SDS011;43656;57.746;11.780;2022-11-23T06:41:00;17.95;;;10.13;;
57826;SDS011;43656;57.746;11.780;2022-11-23T06:43:26;19.73;;;10.40;;
57826;SDS011;43656;57.746;11.780;2022-11-23T06:45:53;17.38;;;10.30;;
57826;SDS011;43656;57.746;11.780;2022-11-23T06:48:19;20.45;;;10.02;;
57826;SDS011;43656;57.746;11.780;2022-11-23T06:50:44;17.35;;;9.63;;
57826;SDS011;43656;57.746;11.780;2022-11-23T06:53:10;17.20;;;9.75;;
57826;SDS011;43656;57.746;11.780;2022-11-23T06:55:38;14.70;;;9.52;;
57826;SDS011;43656;57.746;11.780;2022-11-23T06:58:04;17.13;;;9.18;;
57826;SDS011;43656;57.746;11.780;2022-11-23T07:00:30;14.10;;;8.95;;
57826;SDS011;43656;57.746;11.780;2022-11-23T07:02:56;14.68;;;8.98;;
57826;SDS011;43656;57.746;11.780;2022-11-23T07:05:22;13.50;;;8.65;;
57826;SDS011;43656;57.746;11.780;2022-11-23T07:07:48;16.40;;;9.35;;
57826;SDS011;43656;57.746;11.780;2022-11-23T07:10:14;17.48;;;10.70;;
57826;SDS011;43656;57.746;11.780;2022-11-23T07:12:40;14.50;;;8.93;;
57826;SDS011;43656;57.746;11.780;2022-11-23T07:15:06;13.60;;;9.40;;
57826;SDS011;43656;57.746;11.780;2022-11-23T07:17:32;13.93;;;8.52;;
57826;SDS011;43656;57.746;11.780;2022-11-23T07:19:57;11.32;;;8.10;;
57826;SDS011;43656;57.746;11.780;2022-11-23T07:22:23;13.90;;;8.25;;
57826;SDS011;43656;57.746;11.780;2022-11-23T07:24:48;12.57;;;7.85;;
57826;SDS011;43656;57.746;11.780;2022-11-23T07:27:15;10.02;;;7.03;;
57826;SDS011;43656;57.746;11.780;2022-11-23T07:29:41;11.90;;;7.75;;
57826;SDS011;43656;57.746;11.780;2022-11-23T07:32:06;10.40;;;7.18;;
57826;SDS011;43656;57.746;11.780;2022-11-23T07:34:32;10.68;;;6.88;;
57826;SDS011;43656;57.746;11.780;2022-11-23T07:36:58;9.85;;;7.05;;
57826;SDS011;43656;57.746;11.780;2022-11-23T07:39:23;11.48;;;7.40;;
57826;SDS011;43656;57.746;11.780;2022-11-23T07:41:48;10.10;;;7.05;;
57826;SDS011;43656;57.746;11.780;2022-11-23T07:44:14;10.60;;;6.60;;
57826;SDS011;43656;57.746;11.780;2022-11-23T07:46:39;11.18;;;6.97;;
57826;SDS011;43656;57.746;11.780;2022-11-23T07:49:05;10.63;;;6.55;;
57826;SDS011;43656;57.746;11.780;2022-11-23T07:51:30;11.90;;;6.60;;
57826;SDS011;43656;57.746;11.780;2022-11-23T07:53:56;10.57;;;6.03;;
57826;SDS011;43656;57.746;11.780;2022-11-23T07:56:22;10.13;;;6.75;;
57826;SDS011;43656;57.746;11.780;2022-11-23T07:58:47;8.93;;;6.13;;
57826;SDS011;43656;57.746;11.780;2022-11-23T08:01:14;14.07;;;6.80;;
57826;SDS011;43656;57.746;11.780;2022-11-23T08:03:42;8.23;;;6.45;;
57826;SDS011;43656;57.746;11.780;2022-11-23T08:06:11;9.02;;;6.85;;
57826;SDS011;43656;57.746;11.780;2022-11-23T08:08:37;11.00;;;6.95;;
57826;SDS011;43656;57.746;11.780;2022-11-23T08:11:04;9.20;;;6.28;;
57826;SDS011;43656;57.746;11.780;2022-11-23T08:13:30;9.98;;;6.53;;
57826;SDS011;43656;57.746;11.780;2022-11-23T08:15:56;8.93;;;5.90;;
57826;SDS011;43656;57.746;11.780;2022-11-23T08:18:24;9.20;;;5.78;;
57826;SDS011;43656;57.746;11.780;2022-11-23T08:20:50;9.57;;;6.10;;
57826;SDS011;43656;57.746;11.780;2022-11-23T08:23:15;9.15;;;6.00;;
57826;SDS011;43656;57.746;11.780;2022-11-23T08:25:41;9.82;;;6.70;;
57826;SDS011;43656;57.746;11.780;2022-11-23T08:28:06;10.85;;;6.20;;
57826;SDS011;43656;57.746;11.780;2022-11-23T08:30:32;16.75;;;8.52;;
57826;SDS011;43656;57.746;11.780;2022-11-23T08:32:58;12.82;;;8.57;;
57826;SDS011;43656;57.746;11.780;2022-11-23T08:35:27;10.27;;;7.47;;
57826;SDS011;43656;57.746;11.780;2022-11-23T08:37:53;12.50;;;7.90;;
57826;SDS011;43656;57.746;11.780;2022-11-23T08:40:18;11.10;;;6.63;;
57826;SDS011;43656;57.746;11.780;2022-11-23T08:42:43;9.93;;;6.68;;
57826;SDS011;43656;57.746;11.780;2022-11-23T08:45:10;9.07;;;6.65;;
57826;SDS011;43656;57.746;11.780;2022-11-23T08:47:35;11.65;;;6.78;;
57826;SDS011;43656;57.746;11.780;2022-11-23T08:50:01;20.13;;;10.55;;
57826;SDS011;43656;57.746;11.780;2022-11-23T08:52:26;9.70;;;6.53;;
57826;SDS011;43656;57.746;11.780;2022-11-23T08:54:51;7.65;;;5.47;;
57826;SDS011;43656;57.746;11.780;2022-11-23T08:57:17;8.65;;;5.90;;
57826;SDS011;43656;57.746;11.780;2022-11-23T08:59:42;9.27;;;5.50;;
57826;SDS011;43656;57.746;11.780;2022-11-23T09:02:11;8.00;;;5.63;;
57826;SDS011;43656;57.746;11.780;2022-11-23T09:04:38;7.70;;;5.20;;
57826;SDS011;43656;57.746;11.780;2022-11-23T09:07:04;10.57;;;6.07;;
57826;SDS011;43656;57.746;11.780;2022-11-23T09:09:30;9.05;;;6.20;;
57826;SDS011;43656;57.746;11.780;2022-11-23T09:11:55;8.82;;;5.90;;
57826;SDS011;43656;57.746;11.780;2022-11-23T09:14:20;8.50;;;5.50;;
57826;SDS011;43656;57.746;11.780;2022-11-23T09:16:46;9.85;;;6.93;;
57826;SDS011;43656;57.746;11.780;2022-11-23T09:19:12;10.18;;;6.30;;
57826;SDS011;43656;57.746;11.780;2022-11-23T09:21:38;9.23;;;5.43;;
57826;SDS011;43656;57.746;11.780;2022-11-23T09:24:03;10.80;;;6.70;;
57826;SDS011;43656;57.746;11.780;2022-11-23T09:26:29;9.52;;;5.13;;
57826;SDS011;43656;57.746;11.780;2022-11-23T09:28:57;7.85;;;5.70;;
57826;SDS011;43656;57.746;11.780;2022-11-23T09:31:23;8.30;;;6.25;;
57826;SDS011;43656;57.746;11.780;2022-11-23T09:33:51;11.45;;;5.18;;
57826;SDS011;43656;57.746;11.780;2022-11-23T09:36:17;9.10;;;5.18;;
57826;SDS011;43656;57.746;11.780;2022-11-23T09:38:43;6.68;;;4.82;;
57826;SDS011;43656;57.746;11.780;2022-11-23T09:41:15;8.10;;;5.53;;
57826;SDS011;43656;57.746;11.780;2022-11-23T09:43:56;8.52;;;5.40;;
57826;SDS011;43656;57.746;11.780;2022-11-23T09:49:19;5.55;;;4.40;;
57826;SDS011;43656;57.746;11.780;2022-11-23T09:51:46;5.15;;;3.97;;
57826;SDS011;43656;57.746;11.780;2022-11-23T09:54:32;4.97;;;4.07;;
57826;SDS011;43656;57.746;11.780;2022-11-23T09:57:02;6.13;;;4.20;;
57826;SDS011;43656;57.746;11.780;2022-11-23T10:01:54;96.65;;;30.65;;
57826;SDS011;43656;57.746;11.780;2022-11-23T10:04:20;35.60;;;12.23;;
57826;SDS011;43656;57.746;11.780;2022-11-23T10:06:49;9.60;;;5.75;;
57826;SDS011;43656;57.746;11.780;2022-11-23T10:12:57;5.30;;;3.33;;
57826;SDS011;43656;57.746;11.780;2022-11-23T10:21:05;7.38;;;5.57;;
57826;SDS011;43656;57.746;11.780;2022-11-23T10:26:30;5.60;;;4.30;;
57826;SDS011;43656;57.746;11.780;2022-11-23T10:29:05;6.32;;;4.65;;
57826;SDS011;43656;57.746;11.780;2022-11-23T10:31:53;4.13;;;3.28;;
57826;SDS011;43656;57.746;11.780;2022-11-23T10:37:24;7.55;;;3.40;;
57826;SDS011;43656;57.746;11.780;2022-11-23T10:39:49;6.82;;;3.70;;
57826;SDS011;43656;57.746;11.780;2022-11-23T10:42:20;5.20;;;3.20;;
57826;SDS011;43656;57.746;11.780;2022-11-23T10:44:55;3.97;;;3.25;;
57826;SDS011;43656;57.746;11.780;2022-11-23T10:47:40;5.03;;;3.30;;
57826;SDS011;43656;57.746;11.780;2022-11-23T10:50:32;5.10;;;3.28;;
57826;SDS011;43656;57.746;11.780;2022-11-23T10:55:31;4.60;;;3.65;;
57826;SDS011;43656;57.746;11.780;2022-11-23T10:57:58;4.75;;;2.78;;
57826;SDS011;43656;57.746;11.780;2022-11-23T11:00:25;4.93;;;3.22;;
57826;SDS011;43656;57.746;11.780;2022-11-23T11:02:56;3.83;;;3.10;;
57826;SDS011;43656;57.746;11.780;2022-11-23T11:07:54;9.50;;;5.85;;
57826;SDS011;43656;57.746;11.780;2022-11-23T11:10:33;5.00;;;3.97;;
57826;SDS011;43656;57.746;11.780;2022-11-23T11:13:02;8.23;;;3.30;;
57826;SDS011;43656;57.746;11.780;2022-11-23T11:15:28;3.90;;;2.78;;
57826;SDS011;43656;57.746;11.780;2022-11-23T11:17:54;3.65;;;2.75;;
57826;SDS011;43656;57.746;11.780;2022-11-23T11:20:31;3.75;;;2.90;;
57826;SDS011;43656;57.746;11.780;2022-11-23T11:23:23;4.03;;;2.50;;
57826;SDS011;43656;57.746;11.780;2022-11-23T11:25:48;4.45;;;3.22;;
57826;SDS011;43656;57.746;11.780;2022-11-23T11:28:20;5.63;;;3.22;;
57826;SDS011;43656;57.746;11.780;2022-11-23T11:30:58;5.75;;;2.83;;
57826;SDS011;43656;57.746;11.780;2022-11-23T11:33:41;4.57;;;3.15;;
57826;SDS011;43656;57.746;11.780;2022-11-23T11:36:26;3.80;;;2.90;;
57826;SDS011;43656;57.746;11.780;2022-11-23T11:38:57;4.82;;;2.80;;
57826;SDS011;43656;57.746;11.780;2022-11-23T11:41:26;5.20;;;3.10;;
57826;SDS011;43656;57.746;11.780;2022-11-23T11:44:15;3.42;;;2.92;;
57826;SDS011;43656;57.746;11.780;2022-11-23T11:46:55;3.63;;;2.60;;
57826;SDS011;43656;57.746;11.780;2022-11-23T11:49:32;5.30;;;2.90;;
57826;SDS011;43656;57.746;11.780;2022-11-23T11:52:10;4.00;;;2.58;;
57826;SDS011;43656;57.746;11.780;2022-11-23T11:57:54;4.65;;;3.30;;
57826;SDS011;43656;57.746;11.780;2022-11-23T12:00:26;4.63;;;3.08;;
57826;SDS011;43656;57.746;11.780;2022-11-23T12:03:00;5.20;;;3.22;;
57826;SDS011;43656;57.746;11.780;2022-11-23T12:05:37;5.35;;;3.78;;
57826;SDS011;43656;57.746;11.780;2022-11-23T12:08:12;5.68;;;3.85;;
57826;SDS011;43656;57.746;11.780;2022-11-23T12:10:52;4.82;;;3.38;;
57826;SDS011;43656;57.746;11.780;2022-11-23T12:13:23;4.68;;;3.10;;
57826;SDS011;43656;57.746;11.780;2022-11-23T12:18:52;6.47;;;4.40;;
57826;SDS011;43656;57.746;11.780;2022-11-23T12:24:10;9.40;;;4.65;;
57826;SDS011;43656;57.746;11.780;2022-11-23T12:29:34;10.05;;;5.00;;
57826;SDS011;43656;57.746;11.780;2022-11-23T12:43:38;7.85;;;4.90;;
57826;SDS011;43656;57.746;11.780;2022-11-23T12:46:39;7.20;;;4.68;;
57826;SDS011;43656;57.746;11.780;2022-11-23T12:57:14;19.33;;;6.22;;
57826;SDS011;43656;57.746;11.780;2022-11-23T12:59:47;6.80;;;4.80;;
57826;SDS011;43656;57.746;11.780;2022-11-23T13:21:43;8.57;;;5.32;;
57826;SDS011;43656;57.746;11.780;2022-11-23T13:24:30;8.18;;;5.22;;
57826;SDS011;43656;57.746;11.780;2022-11-23T13:27:40;7.85;;;4.85;;
57826;SDS011;43656;57.746;11.780;2022-11-23T13:32:41;8.45;;;4.72;;
57826;SDS011;43656;57.746;11.780;2022-11-23T13:40:32;7.63;;;4.72;;
57826;SDS011;43656;57.746;11.780;2022-11-23T13:43:00;7.35;;;5.05;;
57826;SDS011;43656;57.746;11.780;2022-11-23T13:45:27;8.27;;;5.32;;
57826;SDS011;43656;57.746;11.780;2022-11-23T13:48:05;8.63;;;5.30;;
57826;SDS011;43656;57.746;11.780;2022-11-23T13:50:39;8.48;;;5.47;;
57826;SDS011;43656;57.746;11.780;2022-11-23T14:12:59;9.10;;;5.82;;
57826;SDS011;43656;57.746;11.780;2022-11-23T14:15:26;19.17;;;10.15;;
57826;SDS011;43656;57.746;11.780;2022-11-23T14:17:58;42.15;;;24.15;;
57826;SDS011;43656;57.746;11.780;2022-11-23T14:23:56;16.05;;;10.20;;
57826;SDS011;43656;57.746;11.780;2022-11-23T14:26:51;16.00;;;9.98;;
57826;SDS011;43656;57.746;11.780;2022-11-23T14:37:56;8.97;;;5.10;;
57826;SDS011;43656;57.746;11.780;2022-11-23T14:43:19;7.87;;;4.57;;
57826;SDS011;43656;57.746;11.780;2022-11-23T14:45:45;6.68;;;4.70;;
57826;SDS011;43656;57.746;11.780;2022-11-23T14:48:21;6.47;;;4.53;;
57826;SDS011;43656;57.746;11.780;2022-11-23T14:50:54;7.55;;;4.82;;
57826;SDS011;43656;57.746;11.780;2022-11-23T14:53:23;7.22;;;5.40;;
57826;SDS011;43656;57.746;11.780;2022-11-23T14:55:52;6.68;;;4.63;;
57826;SDS011;43656;57.746;11.780;2022-11-23T14:58:18;9.88;;;6.50;;
57826;SDS011;43656;57.746;11.780;2022-11-23T15:00:43;5.88;;;4.28;;
57826;SDS011;43656;57.746;11.780;2022-11-23T15:03:14;7.97;;;5.10;;
57826;SDS011;43656;57.746;11.780;2022-11-23T15:05:43;5.03;;;3.83;;
57826;SDS011;43656;57.746;11.780;2022-11-23T15:08:26;8.35;;;5.07;;
57826;SDS011;43656;57.746;11.780;2022-11-23T15:11:12;7.85;;;4.30;;
57826;SDS011;43656;57.746;11.780;2022-11-23T15:13:47;6.88;;;5.00;;
57826;SDS011;43656;57.746;11.780;2022-11-23T15:16:15;6.00;;;4.43;;
57826;SDS011;43656;57.746;11.780;2022-11-23T15:18:42;7.80;;;4.85;;
57826;SDS011;43656;57.746;11.780;2022-11-23T15:26:28;8.35;;;4.80;;
57826;SDS011;43656;57.746;11.780;2022-11-23T15:28:55;6.85;;;5.05;;
57826;SDS011;43656;57.746;11.780;2022-11-23T15:33:49;7.65;;;4.63;;
57826;SDS011;43656;57.746;11.780;2022-11-23T15:36:22;7.50;;;5.00;;
57826;SDS011;43656;57.746;11.780;2022-11-23T15:38:51;6.47;;;4.72;;
57826;SDS011;43656;57.746;11.780;2022-11-23T15:41:18;6.90;;;4.82;;
57826;SDS011;43656;57.746;11.780;2022-11-23T15:43:53;9.25;;;5.20;;
57826;SDS011;43656;57.746;11.780;2022-11-23T15:46:24;8.65;;;5.40;;
57826;SDS011;43656;57.746;11.780;2022-11-23T15:48:54;10.27;;;5.57;;
57826;SDS011;43656;57.746;11.780;2022-11-23T15:51:28;7.00;;;4.85;;
57826;SDS011;43656;57.746;11.780;2022-11-23T15:53:59;8.07;;;4.63;;
57826;SDS011;43656;57.746;11.780;2022-11-23T15:56:29;9.18;;;5.50;;
57826;SDS011;43656;57.746;11.780;2022-11-23T15:59:01;8.52;;;4.88;;
57826;SDS011;43656;57.746;11.780;2022-11-23T16:01:28;7.10;;;5.20;;
57826;SDS011;43656;57.746;11.780;2022-11-23T16:03:55;8.73;;;5.40;;
57826;SDS011;43656;57.746;11.780;2022-11-23T16:11:31;8.13;;;5.53;;
57826;SDS011;43656;57.746;11.780;2022-11-23T16:14:15;11.57;;;6.43;;
57826;SDS011;43656;57.746;11.780;2022-11-23T16:16:43;8.43;;;5.78;;
57826;SDS011;43656;57.746;11.780;2022-11-23T16:21:53;8.80;;;5.40;;
57826;SDS011;43656;57.746;11.780;2022-11-23T16:24:25;9.40;;;5.45;;
57826;SDS011;43656;57.746;11.780;2022-11-23T16:26:51;11.88;;;5.80;;
57826;SDS011;43656;57.746;11.780;2022-11-23T16:29:21;8.73;;;5.70;;
57826;SDS011;43656;57.746;11.780;2022-11-23T16:31:55;9.15;;;5.63;;
57826;SDS011;43656;57.746;11.780;2022-11-23T16:34:23;8.32;;;5.40;;
57826;SDS011;43656;57.746;11.780;2022-11-23T16:36:48;7.00;;;5.63;;
57826;SDS011;43656;57.746;11.780;2022-11-23T16:39:17;12.60;;;6.25;;
57826;SDS011;43656;57.746;11.780;2022-11-23T16:41:43;8.48;;;5.55;;
57826;SDS011;43656;57.746;11.780;2022-11-23T16:44:08;11.60;;;6.00;;
57826;SDS011;43656;57.746;11.780;2022-11-23T16:46:34;8.85;;;5.18;;
57826;SDS011;43656;57.746;11.780;2022-11-23T16:49:02;11.25;;;6.38;;